sensor_id;sensor_type;location;lat;lon;timestamp;temperature;humidity
24254;DHT22;12381;51.152;4.172;2022-08-07T00:01:10;18.40;95.90
24254;DHT22;12381;51.152;4.172;2022-08-07T00:03:36;18.40;95.70
24254;DHT22;12381;51.152;4.172;2022-08-07T00:06:03;18.50;95.60
24254;DHT22;12381;51.152;4.172;2022-08-07T00:08:29;18.50;95.70
24254;DHT22;12381;51.152;4.172;2022-08-07T00:10:54;18.50;95.60
24254;DHT22;12381;51.152;4.172;2022-08-07T00:13:21;18.40;95.70
24254;DHT22;12381;51.152;4.172;2022-08-07T00:15:50;18.30;95.90
24254;DHT22;12381;51.152;4.172;2022-08-07T00:18:18;18.20;96.10
24254;DHT22;12381;51.152;4.172;2022-08-07T00:20:48;18.20;96.10
24254;DHT22;12381;51.152;4.172;2022-08-07T00:23:18;18.20;96.00
24254;DHT22;12381;51.152;4.172;2022-08-07T00:25:43;18.20;96.10
24254;DHT22;12381;51.152;4.172;2022-08-07T00:28:09;18.20;96.10
24254;DHT22;12381;51.152;4.172;2022-08-07T00:30:37;18.20;96.10
24254;DHT22;12381;51.152;4.172;2022-08-07T00:33:03;18.10;96.30
24254;DHT22;12381;51.152;4.172;2022-08-07T00:35:29;18.00;96.20
24254;DHT22;12381;51.152;4.172;2022-08-07T00:37:55;18.10;96.20
24254;DHT22;12381;51.152;4.172;2022-08-07T00:40:21;18.10;96.20
24254;DHT22;12381;51.152;4.172;2022-08-07T00:42:47;18.10;96.30
24254;DHT22;12381;51.152;4.172;2022-08-07T00:45:12;18.00;96.40
24254;DHT22;12381;51.152;4.172;2022-08-07T00:47:38;17.90;96.60
24254;DHT22;12381;51.152;4.172;2022-08-07T00:50:05;17.80;96.70
24254;DHT22;12381;51.152;4.172;2022-08-07T00:52:31;17.80;96.80
24254;DHT22;12381;51.152;4.172;2022-08-07T00:55:00;17.80;96.90
24254;DHT22;12381;51.152;4.172;2022-08-07T00:57:26;17.70;97.10
24254;DHT22;12381;51.152;4.172;2022-08-07T00:59:52;17.70;97.00
24254;DHT22;12381;51.152;4.172;2022-08-07T01:02:18;17.70;97.00
24254;DHT22;12381;51.152;4.172;2022-08-07T01:04:45;17.80;97.10
24254;DHT22;12381;51.152;4.172;2022-08-07T01:07:11;17.70;97.00
24254;DHT22;12381;51.152;4.172;2022-08-07T01:09:37;17.70;97.00
24254;DHT22;12381;51.152;4.172;2022-08-07T01:12:03;17.70;97.10
24254;DHT22;12381;51.152;4.172;2022-08-07T01:14:29;17.60;97.20
24254;DHT22;12381;51.152;4.172;2022-08-07T01:16:56;17.60;97.20
24254;DHT22;12381;51.152;4.172;2022-08-07T01:19:22;17.60;97.30
24254;DHT22;12381;51.152;4.172;2022-08-07T01:21:50;17.60;97.30
24254;DHT22;12381;51.152;4.172;2022-08-07T01:24:17;17.60;97.40
24254;DHT22;12381;51.152;4.172;2022-08-07T01:26:43;17.60;97.40
24254;DHT22;12381;51.152;4.172;2022-08-07T01:29:09;17.60;97.40
24254;DHT22;12381;51.152;4.172;2022-08-07T01:31:38;17.60;97.30
24254;DHT22;12381;51.152;4.172;2022-08-07T01:34:04;17.50;97.50
24254;DHT22;12381;51.152;4.172;2022-08-07T01:36:31;17.50;97.50
24254;DHT22;12381;51.152;4.172;2022-08-07T01:38:57;17.50;97.60
24254;DHT22;12381;51.152;4.172;2022-08-07T01:41:23;17.50;97.60
24254;DHT22;12381;51.152;4.172;2022-08-07T01:43:50;17.50;97.60
24254;DHT22;12381;51.152;4.172;2022-08-07T01:46:18;17.40;97.80
24254;DHT22;12381;51.152;4.172;2022-08-07T01:48:45;17.40;97.80
24254;DHT22;12381;51.152;4.172;2022-08-07T01:51:13;17.40;97.80
24254;DHT22;12381;51.152;4.172;2022-08-07T01:53:45;17.50;98.20
24254;DHT22;12381;51.152;4.172;2022-08-07T01:56:19;17.40;97.90
24254;DHT22;12381;51.152;4.172;2022-08-07T01:58:53;17.40;98.00
24254;DHT22;12381;51.152;4.172;2022-08-07T02:01:29;17.40;97.90
24254;DHT22;12381;51.152;4.172;2022-08-07T02:04:05;17.40;98.30
24254;DHT22;12381;51.152;4.172;2022-08-07T02:06:36;17.30;98.20
24254;DHT22;12381;51.152;4.172;2022-08-07T02:09:05;17.20;98.20
24254;DHT22;12381;51.152;4.172;2022-08-07T02:11:38;17.30;98.20
24254;DHT22;12381;51.152;4.172;2022-08-07T02:14:06;17.20;98.20
24254;DHT22;12381;51.152;4.172;2022-08-07T02:16:35;17.20;98.30
24254;DHT22;12381;51.152;4.172;2022-08-07T02:19:05;17.20;98.30
24254;DHT22;12381;51.152;4.172;2022-08-07T02:21:31;17.30;98.20
24254;DHT22;12381;51.152;4.172;2022-08-07T02:24:00;17.30;98.20
24254;DHT22;12381;51.152;4.172;2022-08-07T02:26:27;17.30;98.20
24254;DHT22;12381;51.152;4.172;2022-08-07T02:28:56;17.30;98.30
24254;DHT22;12381;51.152;4.172;2022-08-07T02:31:22;17.30;98.20
24254;DHT22;12381;51.152;4.172;2022-08-07T02:33:49;17.30;98.20
24254;DHT22;12381;51.152;4.172;2022-08-07T02:36:17;17.30;98.20
24254;DHT22;12381;51.152;4.172;2022-08-07T02:38:44;17.40;98.20
24254;DHT22;12381;51.152;4.172;2022-08-07T02:41:12;17.40;98.10
24254;DHT22;12381;51.152;4.172;2022-08-07T02:43:40;17.40;98.20
24254;DHT22;12381;51.152;4.172;2022-08-07T02:46:08;17.40;98.30
24254;DHT22;12381;51.152;4.172;2022-08-07T02:48:34;17.30;98.20
24254;DHT22;12381;51.152;4.172;2022-08-07T02:51:10;17.20;98.40
24254;DHT22;12381;51.152;4.172;2022-08-07T02:53:37;17.20;98.50
24254;DHT22;12381;51.152;4.172;2022-08-07T02:56:06;17.20;98.40
24254;DHT22;12381;51.152;4.172;2022-08-07T02:58:34;17.20;98.60
24254;DHT22;12381;51.152;4.172;2022-08-07T03:01:01;17.20;98.60
24254;DHT22;12381;51.152;4.172;2022-08-07T03:03:30;17.30;98.60
24254;DHT22;12381;51.152;4.172;2022-08-07T03:05:58;17.30;98.60
24254;DHT22;12381;51.152;4.172;2022-08-07T03:08:25;17.30;98.60
24254;DHT22;12381;51.152;4.172;2022-08-07T03:10:51;17.30;98.50
24254;DHT22;12381;51.152;4.172;2022-08-07T03:13:18;17.30;98.50
24254;DHT22;12381;51.152;4.172;2022-08-07T03:15:44;17.20;98.50
24254;DHT22;12381;51.152;4.172;2022-08-07T03:18:15;17.10;98.70
24254;DHT22;12381;51.152;4.172;2022-08-07T03:20:41;17.10;98.80
24254;DHT22;12381;51.152;4.172;2022-08-07T03:23:08;17.10;98.80
24254;DHT22;12381;51.152;4.172;2022-08-07T03:25:37;17.10;98.80
24254;DHT22;12381;51.152;4.172;2022-08-07T03:28:04;17.10;98.90
24254;DHT22;12381;51.152;4.172;2022-08-07T03:30:31;17.10;98.90
24254;DHT22;12381;51.152;4.172;2022-08-07T03:32:59;17.10;98.70
24254;DHT22;12381;51.152;4.172;2022-08-07T03:35:27;17.10;98.70
24254;DHT22;12381;51.152;4.172;2022-08-07T03:37:59;17.10;98.90
24254;DHT22;12381;51.152;4.172;2022-08-07T03:40:27;17.00;98.90
24254;DHT22;12381;51.152;4.172;2022-08-07T03:42:58;17.00;98.80
24254;DHT22;12381;51.152;4.172;2022-08-07T03:47:58;17.10;98.70
24254;DHT22;12381;51.152;4.172;2022-08-07T03:50:25;17.10;99.00
24254;DHT22;12381;51.152;4.172;2022-08-07T03:52:52;17.00;99.00
24254;DHT22;12381;51.152;4.172;2022-08-07T03:55:21;17.00;99.10
24254;DHT22;12381;51.152;4.172;2022-08-07T03:57:47;17.00;99.10
24254;DHT22;12381;51.152;4.172;2022-08-07T04:00:14;17.00;99.10
24254;DHT22;12381;51.152;4.172;2022-08-07T04:02:41;17.00;99.40
24254;DHT22;12381;51.152;4.172;2022-08-07T04:05:09;17.00;99.10
24254;DHT22;12381;51.152;4.172;2022-08-07T04:07:34;17.00;99.20
24254;DHT22;12381;51.152;4.172;2022-08-07T04:10:03;16.90;99.10
24254;DHT22;12381;51.152;4.172;2022-08-07T04:12:30;16.90;99.20
24254;DHT22;12381;51.152;4.172;2022-08-07T04:14:57;16.90;99.30
24254;DHT22;12381;51.152;4.172;2022-08-07T04:17:23;16.80;99.30
24254;DHT22;12381;51.152;4.172;2022-08-07T04:19:49;16.80;99.40
24254;DHT22;12381;51.152;4.172;2022-08-07T04:22:16;16.80;99.40
24254;DHT22;12381;51.152;4.172;2022-08-07T04:24:42;16.80;99.50
24254;DHT22;12381;51.152;4.172;2022-08-07T04:27:08;16.80;99.50
24254;DHT22;12381;51.152;4.172;2022-08-07T04:29:34;16.80;99.60
24254;DHT22;12381;51.152;4.172;2022-08-07T04:32:00;16.80;99.50
24254;DHT22;12381;51.152;4.172;2022-08-07T04:34:27;16.80;99.60
24254;DHT22;12381;51.152;4.172;2022-08-07T04:36:53;16.90;99.40
24254;DHT22;12381;51.152;4.172;2022-08-07T04:39:19;16.90;99.30
24254;DHT22;12381;51.152;4.172;2022-08-07T04:41:51;16.80;99.30
24254;DHT22;12381;51.152;4.172;2022-08-07T04:44:16;16.80;99.40
24254;DHT22;12381;51.152;4.172;2022-08-07T04:47:08;16.80;99.60
24254;DHT22;12381;51.152;4.172;2022-08-07T04:49:41;16.80;99.60
24254;DHT22;12381;51.152;4.172;2022-08-07T04:52:38;16.80;99.70
24254;DHT22;12381;51.152;4.172;2022-08-07T05:00:58;16.90;99.80
24254;DHT22;12381;51.152;4.172;2022-08-07T05:06:36;16.80;99.90
24254;DHT22;12381;51.152;4.172;2022-08-07T05:09:38;16.90;99.90
24254;DHT22;12381;51.152;4.172;2022-08-07T05:12:07;16.90;99.90
24254;DHT22;12381;51.152;4.172;2022-08-07T05:14:40;16.80;99.90
24254;DHT22;12381;51.152;4.172;2022-08-07T05:17:13;16.80;99.90
24254;DHT22;12381;51.152;4.172;2022-08-07T05:19:43;16.80;99.90
24254;DHT22;12381;51.152;4.172;2022-08-07T05:22:12;16.80;99.90
24254;DHT22;12381;51.152;4.172;2022-08-07T05:24:41;16.80;99.90
24254;DHT22;12381;51.152;4.172;2022-08-07T05:27:09;16.90;99.90
24254;DHT22;12381;51.152;4.172;2022-08-07T05:29:37;16.90;99.90
24254;DHT22;12381;51.152;4.172;2022-08-07T05:32:06;16.90;99.90
24254;DHT22;12381;51.152;4.172;2022-08-07T05:34:36;17.00;99.90
24254;DHT22;12381;51.152;4.172;2022-08-07T05:37:05;17.00;99.90
24254;DHT22;12381;51.152;4.172;2022-08-07T05:39:34;17.10;99.90
24254;DHT22;12381;51.152;4.172;2022-08-07T05:42:00;17.10;99.90
24254;DHT22;12381;51.152;4.172;2022-08-07T05:44:28;17.20;99.90
24254;DHT22;12381;51.152;4.172;2022-08-07T05:46:55;17.20;99.90
24254;DHT22;12381;51.152;4.172;2022-08-07T05:49:21;17.20;99.90
24254;DHT22;12381;51.152;4.172;2022-08-07T05:51:48;17.20;99.90
24254;DHT22;12381;51.152;4.172;2022-08-07T05:54:15;17.30;99.90
24254;DHT22;12381;51.152;4.172;2022-08-07T05:56:42;17.30;99.90
24254;DHT22;12381;51.152;4.172;2022-08-07T05:59:14;17.40;99.90
24254;DHT22;12381;51.152;4.172;2022-08-07T06:01:40;17.40;99.90
24254;DHT22;12381;51.152;4.172;2022-08-07T06:04:08;17.40;99.90
24254;DHT22;12381;51.152;4.172;2022-08-07T06:06:34;17.40;99.90
24254;DHT22;12381;51.152;4.172;2022-08-07T06:09:01;17.50;99.90
24254;DHT22;12381;51.152;4.172;2022-08-07T06:11:27;17.60;99.90
24254;DHT22;12381;51.152;4.172;2022-08-07T06:13:53;17.60;99.90
24254;DHT22;12381;51.152;4.172;2022-08-07T06:16:22;17.70;99.90
24254;DHT22;12381;51.152;4.172;2022-08-07T06:18:48;17.80;99.90
24254;DHT22;12381;51.152;4.172;2022-08-07T06:21:15;17.80;99.90
24254;DHT22;12381;51.152;4.172;2022-08-07T06:23:44;17.90;99.90
24254;DHT22;12381;51.152;4.172;2022-08-07T06:26:12;18.00;99.90
24254;DHT22;12381;51.152;4.172;2022-08-07T06:28:52;18.00;99.90
24254;DHT22;12381;51.152;4.172;2022-08-07T06:31:21;18.10;99.90
24254;DHT22;12381;51.152;4.172;2022-08-07T06:33:47;18.20;99.90
24254;DHT22;12381;51.152;4.172;2022-08-07T06:36:13;18.30;99.90
24254;DHT22;12381;51.152;4.172;2022-08-07T06:38:40;18.40;99.90
24254;DHT22;12381;51.152;4.172;2022-08-07T06:41:11;18.40;99.90
24254;DHT22;12381;51.152;4.172;2022-08-07T06:43:40;18.50;99.90
24254;DHT22;12381;51.152;4.172;2022-08-07T06:46:07;18.60;99.90
24254;DHT22;12381;51.152;4.172;2022-08-07T06:48:33;18.70;99.90
24254;DHT22;12381;51.152;4.172;2022-08-07T06:51:04;18.80;99.70
24254;DHT22;12381;51.152;4.172;2022-08-07T06:53:34;18.90;99.20
24254;DHT22;12381;51.152;4.172;2022-08-07T06:56:03;18.90;99.10
24254;DHT22;12381;51.152;4.172;2022-08-07T06:58:30;18.90;99.50
24254;DHT22;12381;51.152;4.172;2022-08-07T07:00:56;19.00;99.10
24254;DHT22;12381;51.152;4.172;2022-08-07T07:03:22;19.10;98.80
24254;DHT22;12381;51.152;4.172;2022-08-07T07:05:48;19.20;98.40
24254;DHT22;12381;51.152;4.172;2022-08-07T07:08:14;19.20;98.70
24254;DHT22;12381;51.152;4.172;2022-08-07T07:10:43;19.30;98.30
24254;DHT22;12381;51.152;4.172;2022-08-07T07:15:45;19.30;98.10
24254;DHT22;12381;51.152;4.172;2022-08-07T07:18:21;19.40;98.30
24254;DHT22;12381;51.152;4.172;2022-08-07T07:20:54;19.40;98.60
24254;DHT22;12381;51.152;4.172;2022-08-07T07:23:21;19.40;99.00
24254;DHT22;12381;51.152;4.172;2022-08-07T07:25:50;19.50;99.10
24254;DHT22;12381;51.152;4.172;2022-08-07T07:29:02;19.50;99.20
24254;DHT22;12381;51.152;4.172;2022-08-07T07:31:18;19.60;99.30
24254;DHT22;12381;51.152;4.172;2022-08-07T07:33:45;19.60;98.70
24254;DHT22;12381;51.152;4.172;2022-08-07T07:36:12;19.70;98.70
24254;DHT22;12381;51.152;4.172;2022-08-07T07:38:40;19.70;98.90
24254;DHT22;12381;51.152;4.172;2022-08-07T07:41:08;19.70;98.60
24254;DHT22;12381;51.152;4.172;2022-08-07T07:46:10;19.80;98.00
24254;DHT22;12381;51.152;4.172;2022-08-07T07:48:38;19.80;98.30
24254;DHT22;12381;51.152;4.172;2022-08-07T07:51:05;19.80;98.10
24254;DHT22;12381;51.152;4.172;2022-08-07T07:53:43;19.90;98.00
24254;DHT22;12381;51.152;4.172;2022-08-07T07:56:11;20.00;97.40
24254;DHT22;12381;51.152;4.172;2022-08-07T07:58:38;20.00;97.30
24254;DHT22;12381;51.152;4.172;2022-08-07T08:01:06;20.10;97.30
24254;DHT22;12381;51.152;4.172;2022-08-07T08:03:37;20.10;97.30
24254;DHT22;12381;51.152;4.172;2022-08-07T08:06:03;20.10;97.00
24254;DHT22;12381;51.152;4.172;2022-08-07T08:08:31;20.10;97.00
24254;DHT22;12381;51.152;4.172;2022-08-07T08:10:59;20.40;96.20
24254;DHT22;12381;51.152;4.172;2022-08-07T08:13:26;20.40;96.80
24254;DHT22;12381;51.152;4.172;2022-08-07T08:15:54;20.40;96.70
24254;DHT22;12381;51.152;4.172;2022-08-07T08:18:27;20.50;96.70
24254;DHT22;12381;51.152;4.172;2022-08-07T08:20:53;20.50;96.50
24254;DHT22;12381;51.152;4.172;2022-08-07T08:23:19;20.40;96.50
24254;DHT22;12381;51.152;4.172;2022-08-07T08:26:06;20.50;96.70
24254;DHT22;12381;51.152;4.172;2022-08-07T08:28:43;20.40;96.20
24254;DHT22;12381;51.152;4.172;2022-08-07T08:31:18;20.60;96.10
24254;DHT22;12381;51.152;4.172;2022-08-07T08:33:46;20.70;95.90
24254;DHT22;12381;51.152;4.172;2022-08-07T08:36:14;20.70;95.90
24254;DHT22;12381;51.152;4.172;2022-08-07T08:38:42;20.70;96.00
24254;DHT22;12381;51.152;4.172;2022-08-07T08:41:30;20.70;96.00
24254;DHT22;12381;51.152;4.172;2022-08-07T08:44:12;20.80;96.50
24254;DHT22;12381;51.152;4.172;2022-08-07T08:46:42;20.90;95.70
24254;DHT22;12381;51.152;4.172;2022-08-07T08:49:32;20.90;95.60
24254;DHT22;12381;51.152;4.172;2022-08-07T08:52:07;20.90;95.70
24254;DHT22;12381;51.152;4.172;2022-08-07T09:00:09;21.10;95.60
24254;DHT22;12381;51.152;4.172;2022-08-07T09:02:58;21.00;94.90
24254;DHT22;12381;51.152;4.172;2022-08-07T09:08:46;21.00;94.50
24254;DHT22;12381;51.152;4.172;2022-08-07T09:16:40;21.20;94.90
24254;DHT22;12381;51.152;4.172;2022-08-07T09:19:16;21.40;95.20
24254;DHT22;12381;51.152;4.172;2022-08-07T09:27:27;21.60;94.70
24254;DHT22;12381;51.152;4.172;2022-08-07T09:32:49;21.80;94.40
24254;DHT22;12381;51.152;4.172;2022-08-07T09:38:11;22.10;94.10
24254;DHT22;12381;51.152;4.172;2022-08-07T09:54:28;22.90;91.90
24254;DHT22;12381;51.152;4.172;2022-08-07T10:03:10;23.30;92.80
24254;DHT22;12381;51.152;4.172;2022-08-07T10:14:10;24.50;90.40
24254;DHT22;12381;51.152;4.172;2022-08-07T10:19:54;25.10;89.80
24254;DHT22;12381;51.152;4.172;2022-08-07T10:30:26;25.70;88.10
24254;DHT22;12381;51.152;4.172;2022-08-07T10:35:51;25.90;86.00
24254;DHT22;12381;51.152;4.172;2022-08-07T10:38:35;26.10;86.00
24254;DHT22;12381;51.152;4.172;2022-08-07T10:41:34;26.20;84.90
24254;DHT22;12381;51.152;4.172;2022-08-07T10:46:37;26.60;85.10
24254;DHT22;12381;51.152;4.172;2022-08-07T10:52:04;26.90;82.00
24254;DHT22;12381;51.152;4.172;2022-08-07T11:05:12;27.30;80.70
24254;DHT22;12381;51.152;4.172;2022-08-07T11:07:41;27.40;80.20
24254;DHT22;12381;51.152;4.172;2022-08-07T11:10:25;27.50;79.40
24254;DHT22;12381;51.152;4.172;2022-08-07T11:13:31;27.80;80.00
24254;DHT22;12381;51.152;4.172;2022-08-07T11:16:07;27.90;78.50
24254;DHT22;12381;51.152;4.172;2022-08-07T11:18:49;27.60;79.90
24254;DHT22;12381;51.152;4.172;2022-08-07T11:21:41;27.80;78.30
24254;DHT22;12381;51.152;4.172;2022-08-07T11:30:02;27.60;78.10
24254;DHT22;12381;51.152;4.172;2022-08-07T11:33:01;27.80;79.10
24254;DHT22;12381;51.152;4.172;2022-08-07T11:38:36;27.90;78.50
24254;DHT22;12381;51.152;4.172;2022-08-07T11:41:14;27.90;78.00
24254;DHT22;12381;51.152;4.172;2022-08-07T11:44:02;28.00;77.80
24254;DHT22;12381;51.152;4.172;2022-08-07T11:55:39;28.20;76.90
24254;DHT22;12381;51.152;4.172;2022-08-07T11:58:14;28.00;76.60
24254;DHT22;12381;51.152;4.172;2022-08-07T12:09:23;28.50;76.20
24254;DHT22;12381;51.152;4.172;2022-08-07T12:11:57;28.50;75.40
24254;DHT22;12381;51.152;4.172;2022-08-07T12:14:26;28.60;76.40
24254;DHT22;12381;51.152;4.172;2022-08-07T12:17:02;28.40;77.10
24254;DHT22;12381;51.152;4.172;2022-08-07T12:22:11;28.60;76.20
24254;DHT22;12381;51.152;4.172;2022-08-07T12:27:36;28.40;76.10
24254;DHT22;12381;51.152;4.172;2022-08-07T12:30:05;28.50;74.70
24254;DHT22;12381;51.152;4.172;2022-08-07T12:32:51;28.70;76.00
24254;DHT22;12381;51.152;4.172;2022-08-07T12:35:20;28.70;74.90
24254;DHT22;12381;51.152;4.172;2022-08-07T12:37:49;28.80;75.20
24254;DHT22;12381;51.152;4.172;2022-08-07T12:40:20;28.40;75.90
24254;DHT22;12381;51.152;4.172;2022-08-07T12:42:46;28.50;76.40
24254;DHT22;12381;51.152;4.172;2022-08-07T12:45:19;28.40;77.90
24254;DHT22;12381;51.152;4.172;2022-08-07T12:48:15;28.30;77.70
24254;DHT22;12381;51.152;4.172;2022-08-07T12:56:25;28.30;77.50
24254;DHT22;12381;51.152;4.172;2022-08-07T12:58:54;28.40;76.30
24254;DHT22;12381;51.152;4.172;2022-08-07T13:01:44;28.20;77.70
24254;DHT22;12381;51.152;4.172;2022-08-07T13:07:33;28.20;77.10
24254;DHT22;12381;51.152;4.172;2022-08-07T13:15:55;28.30;76.20
24254;DHT22;12381;51.152;4.172;2022-08-07T13:18:47;28.30;74.50
24254;DHT22;12381;51.152;4.172;2022-08-07T13:21:32;28.00;75.40
24254;DHT22;12381;51.152;4.172;2022-08-07T13:24:29;28.00;76.30
24254;DHT22;12381;51.152;4.172;2022-08-07T13:27:10;28.10;76.00
24254;DHT22;12381;51.152;4.172;2022-08-07T13:32:24;28.00;74.70
24254;DHT22;12381;51.152;4.172;2022-08-07T13:35:12;28.00;74.60
24254;DHT22;12381;51.152;4.172;2022-08-07T13:40:42;28.10;76.00
24254;DHT22;12381;51.152;4.172;2022-08-07T13:43:11;28.00;75.50
24254;DHT22;12381;51.152;4.172;2022-08-07T13:45:40;28.20;75.90
24254;DHT22;12381;51.152;4.172;2022-08-07T13:48:10;28.20;75.10
24254;DHT22;12381;51.152;4.172;2022-08-07T13:50:39;28.10;74.90
24254;DHT22;12381;51.152;4.172;2022-08-07T13:53:06;28.00;75.00
24254;DHT22;12381;51.152;4.172;2022-08-07T13:55:34;28.00;75.00
24254;DHT22;12381;51.152;4.172;2022-08-07T13:58:09;28.00;75.20
24254;DHT22;12381;51.152;4.172;2022-08-07T14:00:55;28.10;74.90
24254;DHT22;12381;51.152;4.172;2022-08-07T14:03:24;28.20;75.30
24254;DHT22;12381;51.152;4.172;2022-08-07T14:05:53;28.30;74.50
24254;DHT22;12381;51.152;4.172;2022-08-07T14:08:22;28.30;75.80
24254;DHT22;12381;51.152;4.172;2022-08-07T14:10:49;28.40;75.20
24254;DHT22;12381;51.152;4.172;2022-08-07T14:13:21;28.40;75.60
24254;DHT22;12381;51.152;4.172;2022-08-07T14:15:53;28.30;75.30
24254;DHT22;12381;51.152;4.172;2022-08-07T14:23:34;28.20;76.00
24254;DHT22;12381;51.152;4.172;2022-08-07T14:26:06;27.90;76.20
24254;DHT22;12381;51.152;4.172;2022-08-07T14:28:35;27.90;76.70
24254;DHT22;12381;51.152;4.172;2022-08-07T14:31:02;27.90;77.30
24254;DHT22;12381;51.152;4.172;2022-08-07T14:33:31;28.00;77.10
24254;DHT22;12381;51.152;4.172;2022-08-07T14:35:59;28.00;77.10
24254;DHT22;12381;51.152;4.172;2022-08-07T14:38:27;28.20;77.70
24254;DHT22;12381;51.152;4.172;2022-08-07T14:40:58;28.20;77.60
24254;DHT22;12381;51.152;4.172;2022-08-07T14:43:28;28.20;77.50
24254;DHT22;12381;51.152;4.172;2022-08-07T14:45:57;28.20;76.10
24254;DHT22;12381;51.152;4.172;2022-08-07T14:48:31;28.20;76.40
24254;DHT22;12381;51.152;4.172;2022-08-07T14:50:59;28.20;76.90
24254;DHT22;12381;51.152;4.172;2022-08-07T14:53:30;28.10;77.30
24254;DHT22;12381;51.152;4.172;2022-08-07T14:56:02;28.00;76.80
24254;DHT22;12381;51.152;4.172;2022-08-07T14:58:32;28.00;78.10
24254;DHT22;12381;51.152;4.172;2022-08-07T15:01:00;28.00;78.30
24254;DHT22;12381;51.152;4.172;2022-08-07T15:03:28;28.10;76.60
24254;DHT22;12381;51.152;4.172;2022-08-07T15:05:55;27.90;77.50
24254;DHT22;12381;51.152;4.172;2022-08-07T15:08:42;28.00;77.10
24254;DHT22;12381;51.152;4.172;2022-08-07T15:11:13;28.10;78.40
24254;DHT22;12381;51.152;4.172;2022-08-07T15:13:55;28.00;78.10
24254;DHT22;12381;51.152;4.172;2022-08-07T15:16:37;28.00;78.00
24254;DHT22;12381;51.152;4.172;2022-08-07T15:19:06;28.00;78.30
24254;DHT22;12381;51.152;4.172;2022-08-07T15:21:36;27.90;78.10
24254;DHT22;12381;51.152;4.172;2022-08-07T15:24:11;28.00;79.00
24254;DHT22;12381;51.152;4.172;2022-08-07T15:26:43;27.90;79.10
24254;DHT22;12381;51.152;4.172;2022-08-07T15:29:13;28.00;79.00
24254;DHT22;12381;51.152;4.172;2022-08-07T15:31:41;28.00;79.30
24254;DHT22;12381;51.152;4.172;2022-08-07T15:34:09;27.90;78.70
24254;DHT22;12381;51.152;4.172;2022-08-07T15:36:35;27.90;79.50
24254;DHT22;12381;51.152;4.172;2022-08-07T15:39:04;27.80;79.90
24254;DHT22;12381;51.152;4.172;2022-08-07T15:41:31;27.80;79.20
24254;DHT22;12381;51.152;4.172;2022-08-07T15:44:09;27.90;79.60
24254;DHT22;12381;51.152;4.172;2022-08-07T15:46:37;27.90;80.70
24254;DHT22;12381;51.152;4.172;2022-08-07T15:49:13;27.80;80.40
24254;DHT22;12381;51.152;4.172;2022-08-07T15:51:44;27.80;80.70
24254;DHT22;12381;51.152;4.172;2022-08-07T15:54:12;27.80;80.70
24254;DHT22;12381;51.152;4.172;2022-08-07T15:56:39;27.60;79.60
24254;DHT22;12381;51.152;4.172;2022-08-07T15:59:12;27.40;80.50
24254;DHT22;12381;51.152;4.172;2022-08-07T16:01:50;27.40;81.00
24254;DHT22;12381;51.152;4.172;2022-08-07T16:04:17;27.40;80.90
24254;DHT22;12381;51.152;4.172;2022-08-07T16:06:54;27.40;80.90
24254;DHT22;12381;51.152;4.172;2022-08-07T16:09:28;27.50;81.50
24254;DHT22;12381;51.152;4.172;2022-08-07T16:17:47;27.40;81.40
24254;DHT22;12381;51.152;4.172;2022-08-07T16:26:10;27.30;80.70
24254;DHT22;12381;51.152;4.172;2022-08-07T16:29:09;27.40;80.90
24254;DHT22;12381;51.152;4.172;2022-08-07T16:34:14;27.30;81.30
24254;DHT22;12381;51.152;4.172;2022-08-07T16:39:19;27.30;81.50
24254;DHT22;12381;51.152;4.172;2022-08-07T16:44:49;27.30;81.30
24254;DHT22;12381;51.152;4.172;2022-08-07T16:50:12;27.20;79.60
24254;DHT22;12381;51.152;4.172;2022-08-07T16:55:37;26.90;80.40
24254;DHT22;12381;51.152;4.172;2022-08-07T17:00:48;26.90;80.30
24254;DHT22;12381;51.152;4.172;2022-08-07T17:03:26;26.80;80.80
24254;DHT22;12381;51.152;4.172;2022-08-07T17:08:37;26.60;80.60
24254;DHT22;12381;51.152;4.172;2022-08-07T17:11:12;26.40;81.20
24254;DHT22;12381;51.152;4.172;2022-08-07T17:14:28;26.30;81.20
24254;DHT22;12381;51.152;4.172;2022-08-07T17:16:27;26.20;81.30
24254;DHT22;12381;51.152;4.172;2022-08-07T17:19:01;26.10;81.30
24254;DHT22;12381;51.152;4.172;2022-08-07T17:21:33;25.90;81.40
24254;DHT22;12381;51.152;4.172;2022-08-07T17:26:56;25.80;81.50
24254;DHT22;12381;51.152;4.172;2022-08-07T17:29:40;25.70;81.90
24254;DHT22;12381;51.152;4.172;2022-08-07T17:32:29;25.50;82.00
24254;DHT22;12381;51.152;4.172;2022-08-07T17:35:10;25.60;82.20
24254;DHT22;12381;51.152;4.172;2022-08-07T17:38:07;25.70;82.80
24254;DHT22;12381;51.152;4.172;2022-08-07T17:43:29;25.40;81.80
24254;DHT22;12381;51.152;4.172;2022-08-07T17:46:08;25.30;82.40
24254;DHT22;12381;51.152;4.172;2022-08-07T17:48:47;25.20;82.50
24254;DHT22;12381;51.152;4.172;2022-08-07T17:51:21;25.10;83.00
24254;DHT22;12381;51.152;4.172;2022-08-07T17:53:56;25.10;83.00
24254;DHT22;12381;51.152;4.172;2022-08-07T17:56:27;25.00;83.20
24254;DHT22;12381;51.152;4.172;2022-08-07T18:01:27;25.00;83.60
24254;DHT22;12381;51.152;4.172;2022-08-07T18:06:55;24.90;83.90
24254;DHT22;12381;51.152;4.172;2022-08-07T18:09:24;24.70;83.80
24254;DHT22;12381;51.152;4.172;2022-08-07T18:12:14;24.70;84.10
24254;DHT22;12381;51.152;4.172;2022-08-07T18:15:04;24.50;84.30
24254;DHT22;12381;51.152;4.172;2022-08-07T18:20:36;24.40;84.70
24254;DHT22;12381;51.152;4.172;2022-08-07T18:23:13;24.40;84.90
24254;DHT22;12381;51.152;4.172;2022-08-07T18:25:42;24.30;85.30
24254;DHT22;12381;51.152;4.172;2022-08-07T18:28:18;24.30;85.00
24254;DHT22;12381;51.152;4.172;2022-08-07T18:36:20;24.20;85.40
24254;DHT22;12381;51.152;4.172;2022-08-07T18:39:03;24.20;86.00
24254;DHT22;12381;51.152;4.172;2022-08-07T18:42:18;24.10;85.60
24254;DHT22;12381;51.152;4.172;2022-08-07T18:44:34;24.10;85.60
24254;DHT22;12381;51.152;4.172;2022-08-07T18:47:17;24.00;85.80
24254;DHT22;12381;51.152;4.172;2022-08-07T18:49:59;23.90;86.00
24254;DHT22;12381;51.152;4.172;2022-08-07T18:55:59;23.70;86.70
24254;DHT22;12381;51.152;4.172;2022-08-07T18:58:47;23.70;86.90
24254;DHT22;12381;51.152;4.172;2022-08-07T19:04:11;23.60;87.50
24254;DHT22;12381;51.152;4.172;2022-08-07T19:12:12;23.40;88.20
24254;DHT22;12381;51.152;4.172;2022-08-07T19:15:00;23.40;88.40
24254;DHT22;12381;51.152;4.172;2022-08-07T19:23:35;23.20;89.20
24254;DHT22;12381;51.152;4.172;2022-08-07T19:26:03;23.10;89.70
24254;DHT22;12381;51.152;4.172;2022-08-07T19:28:34;23.00;89.70
24254;DHT22;12381;51.152;4.172;2022-08-07T19:31:15;23.00;90.10
24254;DHT22;12381;51.152;4.172;2022-08-07T19:33:45;22.80;90.20
24254;DHT22;12381;51.152;4.172;2022-08-07T19:36:13;22.80;90.30
24254;DHT22;12381;51.152;4.172;2022-08-07T19:38:43;22.80;90.60
24254;DHT22;12381;51.152;4.172;2022-08-07T19:41:12;22.80;90.50
24254;DHT22;12381;51.152;4.172;2022-08-07T19:43:39;22.70;90.70